sensor_id;sensor_type;location;lat;lon;timestamp;P1;durP1;ratioP1;P2;durP2;ratioP2
75316;SDS011;63913;51.492;10.368;2023-12-07T00:00:03;15.63;;;6.25;;
75316;SDS011;63913;51.492;10.368;2023-12-07T00:02:29;14.15;;;6.03;;
75316;SDS011;63913;51.492;10.368;2023-12-07T00:04:55;13.18;;;6.70;;
75316;SDS011;63913;51.492;10.368;2023-12-07T00:07:20;15.33;;;5.73;;
75316;SDS011;63913;51.492;10.368;2023-12-07T00:09:45;15.10;;;6.10;;
75316;SDS011;63913;51.492;10.368;2023-12-07T00:12:11;13.83;;;6.13;;
75316;SDS011;63913;51.492;10.368;2023-12-07T00:14:36;14.25;;;5.68;;
75316;SDS011;63913;51.492;10.368;2023-12-07T00:17:01;14.57;;;6.43;;
75316;SDS011;63913;51.492;10.368;2023-12-07T00:19:27;13.18;;;6.03;;
75316;SDS011;63913;51.492;10.368;2023-12-07T00:21:52;16.30;;;6.97;;
75316;SDS011;63913;51.492;10.368;2023-12-07T00:24:18;14.15;;;6.28;;
75316;SDS011;63913;51.492;10.368;2023-12-07T00:26:43;13.63;;;6.57;;
75316;SDS011;63913;51.492;10.368;2023-12-07T00:29:08;12.33;;;5.60;;
75316;SDS011;63913;51.492;10.368;2023-12-07T00:31:34;13.17;;;6.37;;
75316;SDS011;63913;51.492;10.368;2023-12-07T00:33:59;12.30;;;5.97;;
75316;SDS011;63913;51.492;10.368;2023-12-07T00:36:25;13.00;;;5.27;;
75316;SDS011;63913;51.492;10.368;2023-12-07T00:38:51;10.82;;;4.88;;
75316;SDS011;63913;51.492;10.368;2023-12-07T00:41:16;10.63;;;4.47;;
75316;SDS011;63913;51.492;10.368;2023-12-07T00:43:42;10.13;;;4.50;;
75316;SDS011;63913;51.492;10.368;2023-12-07T00:46:07;9.40;;;4.10;;
75316;SDS011;63913;51.492;10.368;2023-12-07T00:48:33;9.25;;;4.30;;
75316;SDS011;63913;51.492;10.368;2023-12-07T00:50:58;8.87;;;3.87;;
75316;SDS011;63913;51.492;10.368;2023-12-07T00:53:23;9.70;;;4.47;;
75316;SDS011;63913;51.492;10.368;2023-12-07T00:55:49;11.63;;;5.43;;
75316;SDS011;63913;51.492;10.368;2023-12-07T00:58:14;10.97;;;5.23;;
75316;SDS011;63913;51.492;10.368;2023-12-07T01:00:40;10.20;;;5.00;;
75316;SDS011;63913;51.492;10.368;2023-12-07T01:03:05;13.47;;;6.13;;
75316;SDS011;63913;51.492;10.368;2023-12-07T01:05:31;10.98;;;5.07;;
75316;SDS011;63913;51.492;10.368;2023-12-07T01:07:56;13.07;;;5.28;;
75316;SDS011;63913;51.492;10.368;2023-12-07T01:10:21;14.00;;;6.18;;
75316;SDS011;63913;51.492;10.368;2023-12-07T01:12:47;10.97;;;5.67;;
75316;SDS011;63913;51.492;10.368;2023-12-07T01:15:12;12.03;;;5.93;;
75316;SDS011;63913;51.492;10.368;2023-12-07T01:17:37;13.57;;;6.25;;
75316;SDS011;63913;51.492;10.368;2023-12-07T01:20:04;14.63;;;6.60;;
75316;SDS011;63913;51.492;10.368;2023-12-07T01:22:36;15.00;;;5.90;;
75316;SDS011;63913;51.492;10.368;2023-12-07T01:25:02;13.98;;;6.10;;
75316;SDS011;63913;51.492;10.368;2023-12-07T01:27:27;16.35;;;6.65;;
75316;SDS011;63913;51.492;10.368;2023-12-07T01:29:52;12.33;;;5.77;;
75316;SDS011;63913;51.492;10.368;2023-12-07T01:32:18;15.53;;;6.33;;
75316;SDS011;63913;51.492;10.368;2023-12-07T01:34:43;14.90;;;6.60;;
75316;SDS011;63913;51.492;10.368;2023-12-07T01:37:09;13.67;;;6.23;;
75316;SDS011;63913;51.492;10.368;2023-12-07T01:39:34;12.87;;;6.00;;
75316;SDS011;63913;51.492;10.368;2023-12-07T01:41:59;12.55;;;5.18;;
75316;SDS011;63913;51.492;10.368;2023-12-07T01:44:24;12.63;;;5.87;;
75316;SDS011;63913;51.492;10.368;2023-12-07T01:46:51;12.93;;;5.88;;
75316;SDS011;63913;51.492;10.368;2023-12-07T01:49:17;14.75;;;6.00;;
75316;SDS011;63913;51.492;10.368;2023-12-07T01:51:42;14.13;;;6.60;;
75316;SDS011;63913;51.492;10.368;2023-12-07T01:54:08;13.45;;;6.07;;
75316;SDS011;63913;51.492;10.368;2023-12-07T01:56:34;11.32;;;5.43;;
75316;SDS011;63913;51.492;10.368;2023-12-07T01:58:59;13.00;;;5.63;;
75316;SDS011;63913;51.492;10.368;2023-12-07T02:01:25;12.95;;;5.18;;
75316;SDS011;63913;51.492;10.368;2023-12-07T02:03:50;20.65;;;6.10;;
75316;SDS011;63913;51.492;10.368;2023-12-07T02:06:16;13.68;;;5.57;;
75316;SDS011;63913;51.492;10.368;2023-12-07T02:08:41;14.40;;;5.80;;
75316;SDS011;63913;51.492;10.368;2023-12-07T02:11:08;13.55;;;5.82;;
75316;SDS011;63913;51.492;10.368;2023-12-07T02:13:35;14.48;;;6.32;;
75316;SDS011;63913;51.492;10.368;2023-12-07T02:16:03;12.68;;;6.72;;
75316;SDS011;63913;51.492;10.368;2023-12-07T02:18:38;12.57;;;5.78;;
75316;SDS011;63913;51.492;10.368;2023-12-07T02:21:13;11.65;;;5.60;;
75316;SDS011;63913;51.492;10.368;2023-12-07T02:23:43;12.85;;;6.32;;
75316;SDS011;63913;51.492;10.368;2023-12-07T02:26:12;14.65;;;6.25;;
75316;SDS011;63913;51.492;10.368;2023-12-07T02:28:38;13.77;;;5.97;;
75316;SDS011;63913;51.492;10.368;2023-12-07T02:31:04;11.63;;;5.80;;
75316;SDS011;63913;51.492;10.368;2023-12-07T02:33:30;13.93;;;6.15;;
75316;SDS011;63913;51.492;10.368;2023-12-07T02:35:55;14.57;;;6.28;;
75316;SDS011;63913;51.492;10.368;2023-12-07T02:38:21;14.07;;;6.25;;
75316;SDS011;63913;51.492;10.368;2023-12-07T02:40:51;14.43;;;6.40;;
75316;SDS011;63913;51.492;10.368;2023-12-07T02:43:18;12.75;;;5.78;;
75316;SDS011;63913;51.492;10.368;2023-12-07T02:45:43;17.45;;;6.20;;
75316;SDS011;63913;51.492;10.368;2023-12-07T02:48:09;13.68;;;5.97;;
75316;SDS011;63913;51.492;10.368;2023-12-07T02:50:34;16.20;;;6.60;;
75316;SDS011;63913;51.492;10.368;2023-12-07T02:52:59;14.50;;;6.07;;
75316;SDS011;63913;51.492;10.368;2023-12-07T02:55:25;13.45;;;6.10;;
75316;SDS011;63913;51.492;10.368;2023-12-07T02:57:50;12.23;;;5.60;;
75316;SDS011;63913;51.492;10.368;2023-12-07T03:00:16;14.18;;;6.47;;
75316;SDS011;63913;51.492;10.368;2023-12-07T03:02:42;12.45;;;5.82;;
75316;SDS011;63913;51.492;10.368;2023-12-07T03:05:07;15.20;;;6.38;;
75316;SDS011;63913;51.492;10.368;2023-12-07T03:07:33;15.07;;;5.95;;
75316;SDS011;63913;51.492;10.368;2023-12-07T03:09:59;12.35;;;5.60;;
75316;SDS011;63913;51.492;10.368;2023-12-07T03:12:25;11.48;;;5.38;;
75316;SDS011;63913;51.492;10.368;2023-12-07T03:14:50;13.32;;;5.88;;
75316;SDS011;63913;51.492;10.368;2023-12-07T03:17:15;11.82;;;5.28;;
75316;SDS011;63913;51.492;10.368;2023-12-07T03:19:41;12.80;;;5.47;;
75316;SDS011;63913;51.492;10.368;2023-12-07T03:22:06;15.30;;;5.47;;
75316;SDS011;63913;51.492;10.368;2023-12-07T03:24:32;13.50;;;5.60;;
75316;SDS011;63913;51.492;10.368;2023-12-07T03:26:59;13.07;;;5.88;;
75316;SDS011;63913;51.492;10.368;2023-12-07T03:29:24;13.07;;;6.05;;
75316;SDS011;63913;51.492;10.368;2023-12-07T03:31:50;15.60;;;6.50;;
75316;SDS011;63913;51.492;10.368;2023-12-07T03:34:15;16.73;;;6.23;;
75316;SDS011;63913;51.492;10.368;2023-12-07T03:36:42;16.90;;;6.15;;
75316;SDS011;63913;51.492;10.368;2023-12-07T03:39:10;13.38;;;6.15;;
75316;SDS011;63913;51.492;10.368;2023-12-07T03:41:35;14.40;;;6.63;;
75316;SDS011;63913;51.492;10.368;2023-12-07T03:44:00;17.97;;;6.83;;
75316;SDS011;63913;51.492;10.368;2023-12-07T03:46:26;14.80;;;6.20;;
75316;SDS011;63913;51.492;10.368;2023-12-07T03:48:51;16.57;;;6.80;;
75316;SDS011;63913;51.492;10.368;2023-12-07T03:51:16;17.50;;;6.57;;
75316;SDS011;63913;51.492;10.368;2023-12-07T03:53:42;14.40;;;6.75;;
75316;SDS011;63913;51.492;10.368;2023-12-07T03:56:08;18.45;;;6.90;;
75316;SDS011;63913;51.492;10.368;2023-12-07T03:58:33;17.05;;;6.57;;
75316;SDS011;63913;51.492;10.368;2023-12-07T04:00:59;14.57;;;6.78;;
75316;SDS011;63913;51.492;10.368;2023-12-07T04:03:24;17.38;;;6.85;;
75316;SDS011;63913;51.492;10.368;2023-12-07T04:05:50;14.00;;;6.50;;
75316;SDS011;63913;51.492;10.368;2023-12-07T04:08:15;14.40;;;6.80;;
75316;SDS011;63913;51.492;10.368;2023-12-07T04:10:41;15.13;;;6.72;;
75316;SDS011;63913;51.492;10.368;2023-12-07T04:13:06;14.02;;;6.57;;
75316;SDS011;63913;51.492;10.368;2023-12-07T04:15:31;17.30;;;7.03;;
75316;SDS011;63913;51.492;10.368;2023-12-07T04:17:57;18.17;;;7.93;;
75316;SDS011;63913;51.492;10.368;2023-12-07T04:20:22;16.40;;;6.93;;
75316;SDS011;63913;51.492;10.368;2023-12-07T04:22:47;17.93;;;7.40;;
75316;SDS011;63913;51.492;10.368;2023-12-07T04:25:13;20.03;;;7.90;;
75316;SDS011;63913;51.492;10.368;2023-12-07T04:27:38;15.93;;;7.10;;
75316;SDS011;63913;51.492;10.368;2023-12-07T04:30:03;15.80;;;7.13;;
75316;SDS011;63913;51.492;10.368;2023-12-07T04:32:29;18.40;;;7.60;;
75316;SDS011;63913;51.492;10.368;2023-12-07T04:34:55;19.48;;;7.85;;
75316;SDS011;63913;51.492;10.368;2023-12-07T04:37:20;18.20;;;8.02;;
75316;SDS011;63913;51.492;10.368;2023-12-07T04:39:46;16.10;;;6.30;;
75316;SDS011;63913;51.492;10.368;2023-12-07T04:42:11;15.50;;;7.10;;
75316;SDS011;63913;51.492;10.368;2023-12-07T04:44:36;19.90;;;7.93;;
75316;SDS011;63913;51.492;10.368;2023-12-07T04:47:02;15.18;;;7.30;;
75316;SDS011;63913;51.492;10.368;2023-12-07T04:49:27;18.15;;;7.28;;
75316;SDS011;63913;51.492;10.368;2023-12-07T04:51:53;18.92;;;7.10;;
75316;SDS011;63913;51.492;10.368;2023-12-07T04:54:18;14.93;;;6.67;;
75316;SDS011;63913;51.492;10.368;2023-12-07T04:56:44;17.17;;;6.70;;
75316;SDS011;63913;51.492;10.368;2023-12-07T04:59:09;17.70;;;7.28;;
75316;SDS011;63913;51.492;10.368;2023-12-07T05:01:35;16.73;;;6.63;;
75316;SDS011;63913;51.492;10.368;2023-12-07T05:04:01;15.00;;;6.60;;
75316;SDS011;63913;51.492;10.368;2023-12-07T05:06:28;14.43;;;6.47;;
75316;SDS011;63913;51.492;10.368;2023-12-07T05:08:54;16.83;;;7.30;;
75316;SDS011;63913;51.492;10.368;2023-12-07T05:11:19;17.47;;;7.20;;
75316;SDS011;63913;51.492;10.368;2023-12-07T05:13:45;16.33;;;5.90;;
75316;SDS011;63913;51.492;10.368;2023-12-07T05:16:10;18.73;;;6.83;;
75316;SDS011;63913;51.492;10.368;2023-12-07T05:18:35;16.13;;;7.20;;
75316;SDS011;63913;51.492;10.368;2023-12-07T05:21:01;17.52;;;7.65;;
75316;SDS011;63913;51.492;10.368;2023-12-07T05:23:27;19.20;;;7.97;;
75316;SDS011;63913;51.492;10.368;2023-12-07T05:25:52;19.80;;;7.20;;
75316;SDS011;63913;51.492;10.368;2023-12-07T05:28:18;17.25;;;6.95;;
75316;SDS011;63913;51.492;10.368;2023-12-07T05:30:43;19.30;;;7.68;;
75316;SDS011;63913;51.492;10.368;2023-12-07T05:33:09;20.02;;;7.68;;
75316;SDS011;63913;51.492;10.368;2023-12-07T05:35:34;16.97;;;7.43;;
75316;SDS011;63913;51.492;10.368;2023-12-07T05:37:59;16.23;;;8.23;;
75316;SDS011;63913;51.492;10.368;2023-12-07T05:40:25;20.67;;;8.55;;
75316;SDS011;63913;51.492;10.368;2023-12-07T05:42:51;20.73;;;8.52;;
75316;SDS011;63913;51.492;10.368;2023-12-07T05:45:16;17.95;;;8.15;;
75316;SDS011;63913;51.492;10.368;2023-12-07T05:47:42;20.30;;;7.97;;
75316;SDS011;63913;51.492;10.368;2023-12-07T05:50:07;15.60;;;7.65;;
75316;SDS011;63913;51.492;10.368;2023-12-07T05:52:33;17.48;;;7.43;;
75316;SDS011;63913;51.492;10.368;2023-12-07T05:54:58;16.25;;;7.38;;
75316;SDS011;63913;51.492;10.368;2023-12-07T05:57:24;18.55;;;7.40;;
75316;SDS011;63913;51.492;10.368;2023-12-07T05:59:49;16.90;;;7.25;;
75316;SDS011;63913;51.492;10.368;2023-12-07T06:02:15;16.97;;;7.40;;
75316;SDS011;63913;51.492;10.368;2023-12-07T06:04:40;16.73;;;6.60;;
75316;SDS011;63913;51.492;10.368;2023-12-07T06:07:05;15.50;;;7.65;;
75316;SDS011;63913;51.492;10.368;2023-12-07T06:09:31;17.73;;;6.93;;
75316;SDS011;63913;51.492;10.368;2023-12-07T06:11:56;18.30;;;7.05;;
75316;SDS011;63913;51.492;10.368;2023-12-07T06:14:22;17.15;;;6.65;;
75316;SDS011;63913;51.492;10.368;2023-12-07T06:16:50;20.23;;;7.25;;
75316;SDS011;63913;51.492;10.368;2023-12-07T06:19:16;21.08;;;7.55;;
75316;SDS011;63913;51.492;10.368;2023-12-07T06:21:41;16.67;;;7.18;;
75316;SDS011;63913;51.492;10.368;2023-12-07T06:24:06;18.57;;;7.40;;
75316;SDS011;63913;51.492;10.368;2023-12-07T06:26:32;20.15;;;7.65;;
75316;SDS011;63913;51.492;10.368;2023-12-07T06:28:58;24.83;;;8.90;;
75316;SDS011;63913;51.492;10.368;2023-12-07T06:31:23;23.63;;;8.88;;
75316;SDS011;63913;51.492;10.368;2023-12-07T06:33:48;16.92;;;7.95;;
75316;SDS011;63913;51.492;10.368;2023-12-07T06:36:18;22.90;;;9.50;;
75316;SDS011;63913;51.492;10.368;2023-12-07T06:38:45;24.77;;;10.30;;
75316;SDS011;63913;51.492;10.368;2023-12-07T06:41:10;19.58;;;7.82;;
75316;SDS011;63913;51.492;10.368;2023-12-07T06:43:36;32.60;;;13.23;;
75316;SDS011;63913;51.492;10.368;2023-12-07T06:46:01;17.10;;;7.57;;
75316;SDS011;63913;51.492;10.368;2023-12-07T06:48:26;18.98;;;7.45;;
75316;SDS011;63913;51.492;10.368;2023-12-07T06:50:52;22.35;;;8.23;;
75316;SDS011;63913;51.492;10.368;2023-12-07T06:53:17;19.45;;;7.93;;
75316;SDS011;63913;51.492;10.368;2023-12-07T06:55:43;18.67;;;7.78;;
75316;SDS011;63913;51.492;10.368;2023-12-07T06:58:09;20.52;;;9.15;;
75316;SDS011;63913;51.492;10.368;2023-12-07T07:00:35;26.98;;;11.32;;
75316;SDS011;63913;51.492;10.368;2023-12-07T07:03:01;20.95;;;8.82;;
75316;SDS011;63913;51.492;10.368;2023-12-07T07:05:27;19.05;;;8.05;;
75316;SDS011;63913;51.492;10.368;2023-12-07T07:07:53;20.08;;;7.90;;
75316;SDS011;63913;51.492;10.368;2023-12-07T07:10:20;19.35;;;8.05;;
75316;SDS011;63913;51.492;10.368;2023-12-07T07:12:46;16.85;;;7.70;;
75316;SDS011;63913;51.492;10.368;2023-12-07T07:15:11;14.93;;;6.05;;
75316;SDS011;63913;51.492;10.368;2023-12-07T07:17:37;14.98;;;6.18;;
75316;SDS011;63913;51.492;10.368;2023-12-07T07:20:02;19.17;;;6.78;;
75316;SDS011;63913;51.492;10.368;2023-12-07T07:22:28;16.58;;;6.97;;
75316;SDS011;63913;51.492;10.368;2023-12-07T07:24:54;17.02;;;7.13;;
75316;SDS011;63913;51.492;10.368;2023-12-07T07:27:19;19.10;;;7.57;;
75316;SDS011;63913;51.492;10.368;2023-12-07T07:29:44;16.67;;;6.75;;
75316;SDS011;63913;51.492;10.368;2023-12-07T07:32:11;17.83;;;7.50;;
75316;SDS011;63913;51.492;10.368;2023-12-07T07:34:37;17.45;;;7.30;;
75316;SDS011;63913;51.492;10.368;2023-12-07T07:37:03;18.10;;;6.80;;
75316;SDS011;63913;51.492;10.368;2023-12-07T07:39:28;15.73;;;6.93;;
75316;SDS011;63913;51.492;10.368;2023-12-07T07:41:54;17.48;;;7.38;;
75316;SDS011;63913;51.492;10.368;2023-12-07T07:44:19;18.88;;;6.97;;
75316;SDS011;63913;51.492;10.368;2023-12-07T07:46:44;19.38;;;7.28;;
75316;SDS011;63913;51.492;10.368;2023-12-07T07:49:11;18.38;;;7.18;;
75316;SDS011;63913;51.492;10.368;2023-12-07T07:51:36;18.52;;;7.15;;
75316;SDS011;63913;51.492;10.368;2023-12-07T07:54:02;18.92;;;7.30;;
75316;SDS011;63913;51.492;10.368;2023-12-07T07:56:28;17.38;;;7.53;;
75316;SDS011;63913;51.492;10.368;2023-12-07T07:58:53;14.43;;;6.37;;
75316;SDS011;63913;51.492;10.368;2023-12-07T08:01:18;17.63;;;7.28;;
75316;SDS011;63913;51.492;10.368;2023-12-07T08:03:44;18.95;;;7.40;;
75316;SDS011;63913;51.492;10.368;2023-12-07T08:06:10;18.45;;;6.95;;
75316;SDS011;63913;51.492;10.368;2023-12-07T08:08:35;16.35;;;6.90;;
75316;SDS011;63913;51.492;10.368;2023-12-07T08:11:02;18.08;;;7.90;;
75316;SDS011;63913;51.492;10.368;2023-12-07T08:13:31;17.55;;;7.55;;
75316;SDS011;63913;51.492;10.368;2023-12-07T08:15:57;18.73;;;7.57;;
75316;SDS011;63913;51.492;10.368;2023-12-07T08:18:22;16.57;;;6.97;;
75316;SDS011;63913;51.492;10.368;2023-12-07T08:20:47;20.90;;;9.13;;
75316;SDS011;63913;51.492;10.368;2023-12-07T08:23:13;19.45;;;8.50;;
75316;SDS011;63913;51.492;10.368;2023-12-07T08:25:38;16.08;;;6.55;;
75316;SDS011;63913;51.492;10.368;2023-12-07T08:28:05;16.85;;;7.68;;
75316;SDS011;63913;51.492;10.368;2023-12-07T08:30:30;16.00;;;7.70;;
75316;SDS011;63913;51.492;10.368;2023-12-07T08:32:56;24.42;;;10.13;;
75316;SDS011;63913;51.492;10.368;2023-12-07T08:35:21;13.77;;;5.85;;
75316;SDS011;63913;51.492;10.368;2023-12-07T08:37:46;20.83;;;8.20;;
75316;SDS011;63913;51.492;10.368;2023-12-07T08:40:12;23.33;;;8.55;;
75316;SDS011;63913;51.492;10.368;2023-12-07T08:42:40;21.70;;;8.45;;
75316;SDS011;63913;51.492;10.368;2023-12-07T08:45:06;19.65;;;8.65;;
75316;SDS011;63913;51.492;10.368;2023-12-07T08:47:31;20.42;;;8.13;;
75316;SDS011;63913;51.492;10.368;2023-12-07T08:49:57;18.90;;;8.13;;
75316;SDS011;63913;51.492;10.368;2023-12-07T08:52:22;28.35;;;10.25;;
75316;SDS011;63913;51.492;10.368;2023-12-07T08:54:48;24.95;;;10.20;;
75316;SDS011;63913;51.492;10.368;2023-12-07T08:57:13;20.53;;;7.77;;
75316;SDS011;63913;51.492;10.368;2023-12-07T08:59:39;20.55;;;8.23;;
75316;SDS011;63913;51.492;10.368;2023-12-07T09:02:04;21.05;;;8.38;;
75316;SDS011;63913;51.492;10.368;2023-12-07T09:04:30;25.75;;;7.97;;
75316;SDS011;63913;51.492;10.368;2023-12-07T09:06:55;19.13;;;7.90;;
75316;SDS011;63913;51.492;10.368;2023-12-07T09:09:21;16.95;;;7.45;;
75316;SDS011;63913;51.492;10.368;2023-12-07T09:11:47;15.48;;;5.40;;
75316;SDS011;63913;51.492;10.368;2023-12-07T09:14:12;11.73;;;5.37;;
75316;SDS011;63913;51.492;10.368;2023-12-07T09:16:44;12.18;;;5.65;;
75316;SDS011;63913;51.492;10.368;2023-12-07T09:19:10;18.45;;;7.82;;
75316;SDS011;63913;51.492;10.368;2023-12-07T09:21:37;18.35;;;7.55;;
75316;SDS011;63913;51.492;10.368;2023-12-07T09:24:03;18.90;;;6.43;;
75316;SDS011;63913;51.492;10.368;2023-12-07T09:26:28;13.60;;;6.18;;
75316;SDS011;63913;51.492;10.368;2023-12-07T09:28:54;16.10;;;7.67;;
75316;SDS011;63913;51.492;10.368;2023-12-07T09:31:19;9.73;;;5.00;;
75316;SDS011;63913;51.492;10.368;2023-12-07T09:33:44;12.77;;;5.78;;
75316;SDS011;63913;51.492;10.368;2023-12-07T09:36:10;14.65;;;5.78;;
75316;SDS011;63913;51.492;10.368;2023-12-07T09:38:37;10.70;;;4.78;;
75316;SDS011;63913;51.492;10.368;2023-12-07T09:41:02;11.90;;;5.10;;
75316;SDS011;63913;51.492;10.368;2023-12-07T09:43:29;17.42;;;6.13;;
75316;SDS011;63913;51.492;10.368;2023-12-07T09:45:54;11.45;;;5.30;;
75316;SDS011;63913;51.492;10.368;2023-12-07T09:48:22;10.13;;;4.68;;
75316;SDS011;63913;51.492;10.368;2023-12-07T09:50:48;10.52;;;4.50;;
75316;SDS011;63913;51.492;10.368;2023-12-07T09:53:14;8.95;;;4.57;;
75316;SDS011;63913;51.492;10.368;2023-12-07T09:55:39;11.38;;;5.30;;
75316;SDS011;63913;51.492;10.368;2023-12-07T09:58:05;10.30;;;4.63;;
75316;SDS011;63913;51.492;10.368;2023-12-07T10:00:31;11.32;;;5.15;;
75316;SDS011;63913;51.492;10.368;2023-12-07T10:02:58;10.18;;;5.07;;
75316;SDS011;63913;51.492;10.368;2023-12-07T10:05:24;12.05;;;5.10;;
75316;SDS011;63913;51.492;10.368;2023-12-07T10:07:49;10.50;;;5.15;;
75316;SDS011;63913;51.492;10.368;2023-12-07T10:10:16;13.25;;;5.75;;
75316;SDS011;63913;51.492;10.368;2023-12-07T10:12:47;15.15;;;6.40;;
75316;SDS011;63913;51.492;10.368;2023-12-07T10:15:16;16.13;;;7.03;;
75316;SDS011;63913;51.492;10.368;2023-12-07T10:20:19;17.08;;;6.05;;
75316;SDS011;63913;51.492;10.368;2023-12-07T10:25:27;11.82;;;5.65;;
75316;SDS011;63913;51.492;10.368;2023-12-07T10:27:54;10.15;;;5.03;;
75316;SDS011;63913;51.492;10.368;2023-12-07T10:30:20;14.93;;;5.40;;
75316;SDS011;63913;51.492;10.368;2023-12-07T10:32:50;10.95;;;4.80;;
75316;SDS011;63913;51.492;10.368;2023-12-07T10:35:17;13.23;;;4.65;;
75316;SDS011;63913;51.492;10.368;2023-12-07T10:37:44;9.88;;;4.53;;
75316;SDS011;63913;51.492;10.368;2023-12-07T10:40:10;10.02;;;4.93;;
75316;SDS011;63913;51.492;10.368;2023-12-07T10:42:36;12.65;;;5.47;;
75316;SDS011;63913;51.492;10.368;2023-12-07T10:45:05;10.18;;;5.38;;
75316;SDS011;63913;51.492;10.368;2023-12-07T10:47:37;12.77;;;5.63;;
75316;SDS011;63913;51.492;10.368;2023-12-07T10:50:07;11.82;;;6.20;;
75316;SDS011;63913;51.492;10.368;2023-12-07T10:52:36;13.93;;;5.55;;
75316;SDS011;63913;51.492;10.368;2023-12-07T10:55:10;16.95;;;7.38;;
75316;SDS011;63913;51.492;10.368;2023-12-07T10:57:42;13.60;;;6.47;;
75316;SDS011;63913;51.492;10.368;2023-12-07T11:00:09;16.42;;;6.75;;
75316;SDS011;63913;51.492;10.368;2023-12-07T11:02:36;12.70;;;5.30;;
75316;SDS011;63913;51.492;10.368;2023-12-07T11:05:02;10.45;;;4.15;;
75316;SDS011;63913;51.492;10.368;2023-12-07T11:07:34;10.50;;;4.55;;
75316;SDS011;63913;51.492;10.368;2023-12-07T11:10:10;9.30;;;3.78;;
75316;SDS011;63913;51.492;10.368;2023-12-07T11:12:51;13.32;;;5.03;;
75316;SDS011;63913;51.492;10.368;2023-12-07T11:15:24;13.65;;;4.95;;
75316;SDS011;63913;51.492;10.368;2023-12-07T11:17:51;13.80;;;5.10;;
75316;SDS011;63913;51.492;10.368;2023-12-07T11:20:21;9.20;;;4.43;;
75316;SDS011;63913;51.492;10.368;2023-12-07T11:22:47;10.02;;;4.53;;
75316;SDS011;63913;51.492;10.368;2023-12-07T11:25:14;13.32;;;5.57;;
75316;SDS011;63913;51.492;10.368;2023-12-07T11:27:40;10.35;;;5.07;;
75316;SDS011;63913;51.492;10.368;2023-12-07T11:30:12;10.73;;;4.43;;
75316;SDS011;63913;51.492;10.368;2023-12-07T11:32:39;8.27;;;4.22;;
75316;SDS011;63913;51.492;10.368;2023-12-07T11:35:05;7.95;;;3.80;;
75316;SDS011;63913;51.492;10.368;2023-12-07T11:40:38;5.13;;;2.42;;
75316;SDS011;63913;51.492;10.368;2023-12-07T11:43:05;7.13;;;3.30;;
75316;SDS011;63913;51.492;10.368;2023-12-07T11:48:16;5.78;;;2.88;;
75316;SDS011;63913;51.492;10.368;2023-12-07T11:51:03;5.97;;;2.60;;
75316;SDS011;63913;51.492;10.368;2023-12-07T11:53:31;5.95;;;3.10;;
75316;SDS011;63913;51.492;10.368;2023-12-07T11:55:57;5.22;;;3.10;;
75316;SDS011;63913;51.492;10.368;2023-12-07T11:58:28;4.80;;;3.17;;
75316;SDS011;63913;51.492;10.368;2023-12-07T12:00:54;4.97;;;2.63;;
75316;SDS011;63913;51.492;10.368;2023-12-07T12:03:21;5.45;;;2.90;;
75316;SDS011;63913;51.492;10.368;2023-12-07T12:05:48;5.07;;;2.70;;
75316;SDS011;63913;51.492;10.368;2023-12-07T12:08:13;10.00;;;3.17;;
75316;SDS011;63913;51.492;10.368;2023-12-07T12:10:39;5.00;;;2.60;;
75316;SDS011;63913;51.492;10.368;2023-12-07T12:13:05;4.75;;;2.55;;
75316;SDS011;63913;51.492;10.368;2023-12-07T12:15:31;5.15;;;2.42;;
75316;SDS011;63913;51.492;10.368;2023-12-07T12:17:57;3.65;;;1.75;;
75316;SDS011;63913;51.492;10.368;2023-12-07T12:20:24;5.63;;;2.60;;
75316;SDS011;63913;51.492;10.368;2023-12-07T12:22:50;4.18;;;2.55;;
75316;SDS011;63913;51.492;10.368;2023-12-07T12:25:19;5.60;;;2.35;;
75316;SDS011;63913;51.492;10.368;2023-12-07T12:27:46;3.78;;;2.00;;
75316;SDS011;63913;51.492;10.368;2023-12-07T12:30:12;3.42;;;2.15;;
75316;SDS011;63913;51.492;10.368;2023-12-07T12:32:44;3.75;;;1.98;;
75316;SDS011;63913;51.492;10.368;2023-12-07T12:35:11;5.88;;;2.47;;
75316;SDS011;63913;51.492;10.368;2023-12-07T12:37:44;4.25;;;1.83;;
75316;SDS011;63913;51.492;10.368;2023-12-07T12:40:13;5.18;;;2.60;;
75316;SDS011;63913;51.492;10.368;2023-12-07T12:42:43;4.50;;;2.28;;
75316;SDS011;63913;51.492;10.368;2023-12-07T12:45:10;3.53;;;2.00;;
75316;SDS011;63913;51.492;10.368;2023-12-07T12:47:37;2.97;;;1.90;;
75316;SDS011;63913;51.492;10.368;2023-12-07T12:50:03;5.32;;;1.98;;
75316;SDS011;63913;51.492;10.368;2023-12-07T12:52:32;3.78;;;1.67;;
75316;SDS011;63913;51.492;10.368;2023-12-07T12:54:58;3.40;;;1.90;;
75316;SDS011;63913;51.492;10.368;2023-12-07T12:57:24;4.50;;;2.05;;
75316;SDS011;63913;51.492;10.368;2023-12-07T12:59:50;4.47;;;1.92;;
75316;SDS011;63913;51.492;10.368;2023-12-07T13:02:16;6.07;;;2.53;;
75316;SDS011;63913;51.492;10.368;2023-12-07T13:04:43;5.35;;;2.45;;
75316;SDS011;63913;51.492;10.368;2023-12-07T13:07:12;4.68;;;2.28;;
75316;SDS011;63913;51.492;10.368;2023-12-07T13:09:39;5.70;;;2.40;;
75316;SDS011;63913;51.492;10.368;2023-12-07T13:12:04;3.03;;;1.88;;
75316;SDS011;63913;51.492;10.368;2023-12-07T13:14:30;2.72;;;1.83;;
75316;SDS011;63913;51.492;10.368;2023-12-07T13:16:56;3.22;;;1.80;;
75316;SDS011;63913;51.492;10.368;2023-12-07T13:19:21;4.83;;;1.73;;
75316;SDS011;63913;51.492;10.368;2023-12-07T13:21:47;4.70;;;2.50;;
75316;SDS011;63913;51.492;10.368;2023-12-07T13:24:12;5.70;;;2.10;;
75316;SDS011;63913;51.492;10.368;2023-12-07T13:26:38;3.33;;;2.00;;
75316;SDS011;63913;51.492;10.368;2023-12-07T13:29:04;5.13;;;2.05;;
75316;SDS011;63913;51.492;10.368;2023-12-07T13:31:30;4.70;;;2.45;;
75316;SDS011;63913;51.492;10.368;2023-12-07T13:33:55;3.67;;;2.00;;
75316;SDS011;63913;51.492;10.368;2023-12-07T13:36:21;4.07;;;2.20;;
75316;SDS011;63913;51.492;10.368;2023-12-07T13:38:49;6.30;;;2.88;;
75316;SDS011;63913;51.492;10.368;2023-12-07T13:41:14;4.47;;;2.13;;
75316;SDS011;63913;51.492;10.368;2023-12-07T13:43:39;3.95;;;1.90;;
75316;SDS011;63913;51.492;10.368;2023-12-07T13:46:06;14.45;;;6.40;;
75316;SDS011;63913;51.492;10.368;2023-12-07T13:48:32;6.23;;;3.10;;
75316;SDS011;63913;51.492;10.368;2023-12-07T13:50:57;4.40;;;2.42;;
75316;SDS011;63913;51.492;10.368;2023-12-07T13:53:22;2.00;;;1.70;;
75316;SDS011;63913;51.492;10.368;2023-12-07T13:55:48;5.67;;;2.63;;
75316;SDS011;63913;51.492;10.368;2023-12-07T13:58:17;3.92;;;2.38;;
75316;SDS011;63913;51.492;10.368;2023-12-07T14:00:42;5.00;;;2.38;;
75316;SDS011;63913;51.492;10.368;2023-12-07T14:03:10;4.07;;;2.38;;
75316;SDS011;63913;51.492;10.368;2023-12-07T14:05:37;3.30;;;2.22;;
75316;SDS011;63913;51.492;10.368;2023-12-07T14:08:05;5.63;;;2.45;;
75316;SDS011;63913;51.492;10.368;2023-12-07T14:10:34;3.50;;;1.98;;
75316;SDS011;63913;51.492;10.368;2023-12-07T14:12:59;4.15;;;2.47;;
75316;SDS011;63913;51.492;10.368;2023-12-07T14:15:25;4.20;;;2.30;;
75316;SDS011;63913;51.492;10.368;2023-12-07T14:17:50;5.32;;;2.55;;
75316;SDS011;63913;51.492;10.368;2023-12-07T14:20:16;4.07;;;2.30;;
75316;SDS011;63913;51.492;10.368;2023-12-07T14:22:41;6.55;;;3.05;;
75316;SDS011;63913;51.492;10.368;2023-12-07T14:25:06;5.18;;;2.90;;
75316;SDS011;63913;51.492;10.368;2023-12-07T14:27:32;3.40;;;2.28;;